createdAt,value
2018-06-04T00:01:00.738Z,68.92
2018-06-04T00:03:26.999Z,67.37
2018-06-04T00:05:53.332Z,66.77
2018-06-04T00:08:19.619Z,66.36
2018-06-04T00:10:45.909Z,65.85
2018-06-04T00:13:12.203Z,66.00
2018-06-04T00:15:38.528Z,66.22
2018-06-04T00:18:04.827Z,66.09
2018-06-04T00:20:31.120Z,66.45
2018-06-04T00:22:57.418Z,67.04
2018-06-04T00:25:23.713Z,66.96
2018-06-04T00:27:50.015Z,67.11
2018-06-04T00:30:16.305Z,66.99
2018-06-04T00:32:42.630Z,67.46
2018-06-04T00:35:08.920Z,67.18
2018-06-04T00:37:35.216Z,67.67
2018-06-04T00:40:01.503Z,67.77
2018-06-04T00:42:27.792Z,67.88
2018-06-04T00:44:54.120Z,68.38
2018-06-04T00:47:20.416Z,68.28
2018-06-04T00:49:46.708Z,68.61
2018-06-04T00:52:12.991Z,69.17
2018-06-04T00:54:39.286Z,68.94
2018-06-04T00:57:05.577Z,68.62
2018-06-04T00:59:31.873Z,68.67
2018-06-04T01:01:58.165Z,69.65
2018-06-04T01:04:24.512Z,70.19
2018-06-04T01:06:50.818Z,70.59
2018-06-04T01:09:17.140Z,70.87
2018-06-04T01:11:43.439Z,71.65
2018-06-04T01:14:09.724Z,71.86
2018-06-04T01:16:36.027Z,72.79
2018-06-04T01:19:02.321Z,74.29
2018-06-04T01:21:28.619Z,75.54
2018-06-04T01:23:54.917Z,76.07
2018-06-04T01:26:21.208Z,75.63
2018-06-04T01:28:47.510Z,75.23
2018-06-04T01:31:13.807Z,74.82
2018-06-04T01:33:40.110Z,73.49
2018-06-04T01:36:06.401Z,73.80
2018-06-04T01:38:32.691Z,74.85
2018-06-04T01:40:58.990Z,75.65
2018-06-04T01:43:25.279Z,76.79
2018-06-04T01:45:51.575Z,77.00
2018-06-04T01:48:17.871Z,77.50
2018-06-04T01:50:44.159Z,78.44
2018-06-04T01:53:10.451Z,78.75
2018-06-04T01:55:36.763Z,79.41
2018-06-04T01:58:03.053Z,78.90
2018-06-04T02:00:29.396Z,78.10
2018-06-04T02:02:55.660Z,78.23
2018-06-04T02:05:21.992Z,78.56
2018-06-04T02:07:48.284Z,79.67
2018-06-04T02:10:14.573Z,79.85
2018-06-04T02:12:40.898Z,79.79
2018-06-04T02:15:07.196Z,80.06
2018-06-04T02:17:33.487Z,80.09
2018-06-04T02:19:59.774Z,80.75
2018-06-04T02:22:26.103Z,81.30
2018-06-04T02:24:52.392Z,81.58
2018-06-04T02:27:18.683Z,81.67
2018-06-04T02:29:44.980Z,82.14
2018-06-04T02:32:11.276Z,81.55
2018-06-04T02:34:37.566Z,80.86
2018-06-04T02:37:03.874Z,81.11
2018-06-04T02:39:30.203Z,81.69
2018-06-04T02:41:56.497Z,81.82
2018-06-04T02:44:22.792Z,82.06
2018-06-04T02:46:49.093Z,82.57
2018-06-04T02:49:15.376Z,81.34
2018-06-04T02:51:41.712Z,81.15
2018-06-04T02:54:08.009Z,81.81
2018-06-04T02:56:34.343Z,81.64
2018-06-04T02:59:00.630Z,81.31
2018-06-04T03:01:26.921Z,81.11
2018-06-04T03:03:53.214Z,81.61
2018-06-04T03:06:19.499Z,81.98
2018-06-04T03:08:45.792Z,82.23
2018-06-04T03:11:12.079Z,81.84
2018-06-04T03:13:38.372Z,81.72
2018-06-04T03:16:04.659Z,81.62
2018-06-04T03:18:30.954Z,81.70
2018-06-04T03:20:57.259Z,81.75
2018-06-04T03:23:23.549Z,81.68
2018-06-04T03:25:49.837Z,81.15
2018-06-04T03:28:16.132Z,80.29
2018-06-04T03:30:42.481Z,80.24
2018-06-04T03:33:08.769Z,80.48
2018-06-04T03:35:35.074Z,80.37
2018-06-04T03:38:01.361Z,80.38
2018-06-04T03:40:27.659Z,80.60
2018-06-04T03:42:53.952Z,80.78
2018-06-04T03:45:20.256Z,80.99
2018-06-04T03:47:46.546Z,81.29
2018-06-04T03:50:12.837Z,79.74
2018-06-04T03:52:39.123Z,79.05
2018-06-04T03:55:05.439Z,78.69
2018-06-04T03:57:31.736Z,79.14
2018-06-04T03:59:58.028Z,79.15
2018-06-04T04:02:24.320Z,79.18
2018-06-04T04:04:50.630Z,78.84
2018-06-04T04:07:16.917Z,78.82
2018-06-04T04:09:43.217Z,79.78
2018-06-04T04:12:09.503Z,78.39
2018-06-04T04:14:35.801Z,78.40
2018-06-04T04:17:02.090Z,78.19
2018-06-04T04:19:28.392Z,78.54
2018-06-04T04:21:54.721Z,77.67
2018-06-04T04:24:21.019Z,77.07
2018-06-04T04:26:47.308Z,77.13
2018-06-04T04:29:13.600Z,76.74
2018-06-04T04:31:39.898Z,76.15
2018-06-04T04:34:06.188Z,75.13
2018-06-04T04:36:32.481Z,74.94
2018-06-04T04:38:58.813Z,74.12
2018-06-04T04:41:25.098Z,74.79
2018-06-04T04:43:51.445Z,74.18
2018-06-04T04:46:17.730Z,73.21
2018-06-04T04:48:44.020Z,72.09
2018-06-04T04:51:10.317Z,71.65
2018-06-04T04:53:36.603Z,71.33
2018-06-04T04:56:02.898Z,71.75
2018-06-04T04:58:29.199Z,70.81
2018-06-04T05:00:55.497Z,70.00
2018-06-04T05:03:21.783Z,69.57
2018-06-04T05:05:48.114Z,69.16
2018-06-04T05:08:14.447Z,68.24
2018-06-04T05:10:40.779Z,68.20
2018-06-04T05:13:07.071Z,66.89
2018-06-04T05:15:34.092Z,65.42
2018-06-04T05:18:01.238Z,65.01
2018-06-04T05:20:28.607Z,65.97
2018-06-04T05:22:54.897Z,64.65
2018-06-04T05:25:21.192Z,63.00
2018-06-04T05:27:47.490Z,63.52
2018-06-04T05:30:13.785Z,62.24
2018-06-04T05:32:40.078Z,57.90
2018-06-04T05:35:06.411Z,56.12
2018-06-04T05:37:32.696Z,61.26
2018-06-04T05:39:58.998Z,59.66
2018-06-04T05:42:25.350Z,54.62
2018-06-04T05:44:51.588Z,55.81
2018-06-04T05:47:17.875Z,56.98
2018-06-04T05:49:44.245Z,53.99
2018-06-04T05:52:10.539Z,52.11
2018-06-04T05:54:36.830Z,51.17
2018-06-04T05:57:03.128Z,49.11
2018-06-04T05:59:29.416Z,46.83
2018-06-04T06:01:55.707Z,47.13
2018-06-04T06:04:21.996Z,47.36
2018-06-04T06:06:48.290Z,45.69
2018-06-04T06:09:14.603Z,46.25
2018-06-04T06:11:40.866Z,46.19
2018-06-04T06:14:07.220Z,47.58
2018-06-04T06:16:33.472Z,47.36
2018-06-04T06:18:59.809Z,47.81
2018-06-04T06:21:26.104Z,52.23
2018-06-04T06:23:52.471Z,51.67
2018-06-04T06:26:18.775Z,51.58
2018-06-04T06:28:45.069Z,48.85
2018-06-04T06:31:11.368Z,46.70
2018-06-04T06:33:37.652Z,46.33
2018-06-04T06:36:03.950Z,45.86
2018-06-04T06:38:30.243Z,45.69
2018-06-04T06:40:56.542Z,45.30
2018-06-04T06:43:22.831Z,45.64
2018-06-04T06:45:49.130Z,45.49
2018-06-04T06:48:15.471Z,44.45
2018-06-04T06:50:41.755Z,43.97
2018-06-04T06:53:08.047Z,44.18
2018-06-04T06:55:34.337Z,44.00
2018-06-04T06:58:00.676Z,42.35
2018-06-04T07:00:27.007Z,43.76
2018-06-04T07:02:53.388Z,43.97
2018-06-04T07:05:19.691Z,44.03
2018-06-04T07:07:45.980Z,41.76
2018-06-04T07:10:12.275Z,42.17
2018-06-04T07:12:38.573Z,43.79
2018-06-04T07:15:04.869Z,43.88
2018-06-04T07:17:31.189Z,42.96
2018-06-04T07:19:57.452Z,43.96
2018-06-04T07:22:23.743Z,42.75
2018-06-04T07:24:50.038Z,43.95
2018-06-04T07:27:16.368Z,44.21
2018-06-04T07:29:42.652Z,43.66
2018-06-04T07:32:08.952Z,42.27
2018-06-04T07:34:35.310Z,41.77
2018-06-04T07:37:01.580Z,41.76
2018-06-04T07:39:27.867Z,39.76
2018-06-04T07:41:54.209Z,41.24
2018-06-04T07:44:20.563Z,40.82
2018-06-04T07:46:46.847Z,40.01
2018-06-04T07:49:13.138Z,39.68
2018-06-04T07:51:39.437Z,39.58
2018-06-04T07:54:05.728Z,39.75
2018-06-04T07:56:32.025Z,39.55
2018-06-04T07:58:58.323Z,39.23
2018-06-04T08:01:24.613Z,38.63
2018-06-04T08:03:50.960Z,42.04
2018-06-04T08:06:17.305Z,43.34
2018-06-04T08:08:43.552Z,41.85
2018-06-04T08:11:09.887Z,40.73
2018-06-04T08:13:36.155Z,39.51
2018-06-04T08:16:02.450Z,38.73
2018-06-04T08:18:28.738Z,40.35
2018-06-04T08:20:55.068Z,38.96
2018-06-04T08:23:21.367Z,37.34
2018-06-04T08:25:47.705Z,37.48
2018-06-04T08:28:13.998Z,37.85
2018-06-04T08:30:40.294Z,38.80
2018-06-04T08:33:06.630Z,41.40
2018-06-04T08:35:32.920Z,43.46
2018-06-04T08:37:59.223Z,41.94
2018-06-04T08:40:25.509Z,40.61
2018-06-04T08:42:51.853Z,38.74
2018-06-04T08:45:18.144Z,38.31
2018-06-04T08:47:44.440Z,38.27
2018-06-04T08:50:10.741Z,39.51
2018-06-04T08:52:37.023Z,40.37
2018-06-04T08:55:03.311Z,41.76
2018-06-04T08:57:29.600Z,42.87
2018-06-04T08:59:55.884Z,44.17
2018-06-04T09:02:22.178Z,44.57
2018-06-04T09:04:48.474Z,44.46
2018-06-04T09:07:14.829Z,42.01
2018-06-04T09:09:41.158Z,41.19
2018-06-04T09:12:07.488Z,40.60
2018-06-04T09:14:33.821Z,40.30
2018-06-04T09:17:00.149Z,39.85
2018-06-04T09:19:26.438Z,39.00
2018-06-04T09:21:52.763Z,38.85
2018-06-04T09:24:19.095Z,38.32
2018-06-04T09:26:45.387Z,36.49
2018-06-04T09:29:11.688Z,36.13
2018-06-04T09:31:38.032Z,36.25
2018-06-04T09:34:04.324Z,36.27
2018-06-04T09:36:30.633Z,34.50
2018-06-04T09:38:56.956Z,34.49
2018-06-04T09:43:56.358Z,34.15
2018-06-04T09:46:16.242Z,33.93
2018-06-04T09:48:42.541Z,33.29
2018-06-04T09:51:08.852Z,32.27
2018-06-04T09:53:35.140Z,33.00
2018-06-04T09:56:06.901Z,33.62
2018-06-04T09:58:31.733Z,31.96
2018-06-04T10:00:58.069Z,31.66
2018-06-04T10:03:24.358Z,31.86
2018-06-04T10:05:50.655Z,32.62
2018-06-04T10:08:16.955Z,31.56
2018-06-04T10:10:43.246Z,31.89
2018-06-04T10:13:09.545Z,31.51
2018-06-04T10:15:35.843Z,33.04
2018-06-04T10:18:02.130Z,34.06
2018-06-04T10:20:28.420Z,33.16
2018-06-04T10:22:54.753Z,32.37
2018-06-04T10:25:21.066Z,32.56
2018-06-04T10:27:47.394Z,31.35
2018-06-04T10:30:13.658Z,32.24
2018-06-04T10:32:39.970Z,36.59
2018-06-04T10:35:09.570Z,36.94
2018-06-04T10:37:36.101Z,36.94
2018-06-04T10:40:02.358Z,36.24
2018-06-04T10:42:28.653Z,36.76
2018-06-04T10:44:54.943Z,38.31
2018-06-04T10:47:21.238Z,38.50
2018-06-04T10:49:47.533Z,38.62
2018-06-04T10:52:13.819Z,37.89
2018-06-04T10:54:40.115Z,39.03
2018-06-04T10:57:06.409Z,38.73
2018-06-04T10:59:38.562Z,37.23
2018-06-04T11:01:59.134Z,36.26
2018-06-04T11:04:25.429Z,35.11
2018-06-04T11:06:51.715Z,35.37
2018-06-04T11:09:18.062Z,34.50
2018-06-04T11:11:44.361Z,34.12
2018-06-04T11:14:10.656Z,33.60
2018-06-04T11:16:36.947Z,33.53
2018-06-04T11:19:03.241Z,33.69
2018-06-04T11:21:29.533Z,33.80
2018-06-04T11:23:55.843Z,33.85
2018-06-04T11:26:22.130Z,35.12
2018-06-04T11:28:48.425Z,35.72
2018-06-04T11:31:14.743Z,36.42
2018-06-04T11:33:41.019Z,36.18
2018-06-04T11:36:07.347Z,36.11
2018-06-04T11:38:33.650Z,36.10
2018-06-04T11:40:59.939Z,36.93
2018-06-04T11:43:26.244Z,37.17
2018-06-04T11:45:52.565Z,35.64
2018-06-04T11:48:18.865Z,34.44
2018-06-04T11:50:45.157Z,33.91
2018-06-04T11:53:11.448Z,34.59
2018-06-04T11:55:37.755Z,34.13
2018-06-04T11:58:04.092Z,33.37
2018-06-04T12:00:30.380Z,34.49
2018-06-04T12:02:56.712Z,34.89
2018-06-04T12:05:23.328Z,35.14
2018-06-04T12:07:49.668Z,35.60
2018-06-04T12:10:16.003Z,34.13
2018-06-04T12:12:42.306Z,33.81
2018-06-04T12:15:08.604Z,33.59
2018-06-04T12:17:34.905Z,34.72
2018-06-04T12:20:01.195Z,35.18
2018-06-04T12:22:27.494Z,35.13
2018-06-04T12:24:53.787Z,34.98
2018-06-04T12:27:20.090Z,35.02
2018-06-04T12:29:46.374Z,35.20
2018-06-04T12:32:12.668Z,34.65
2018-06-04T12:34:38.968Z,34.34
2018-06-04T12:37:05.271Z,34.13
2018-06-04T12:39:31.579Z,33.24
2018-06-04T12:41:57.866Z,32.46
2018-06-04T12:44:24.163Z,32.60
2018-06-04T12:46:50.461Z,32.35
2018-06-04T12:49:16.770Z,31.40
2018-06-04T12:51:43.053Z,32.88
2018-06-04T12:54:09.437Z,34.83
2018-06-04T12:56:35.667Z,30.54
2018-06-04T12:59:01.958Z,29.22
2018-06-04T13:01:28.253Z,28.71
2018-06-04T13:03:54.542Z,28.96
2018-06-04T13:06:20.841Z,27.85
2018-06-04T13:08:47.128Z,28.80
2018-06-04T13:11:13.461Z,28.82
2018-06-04T13:13:39.748Z,30.81
2018-06-04T13:16:06.047Z,33.72
2018-06-04T13:18:32.339Z,34.92
2018-06-04T13:20:58.659Z,36.40
2018-06-04T13:23:24.972Z,37.56
2018-06-04T13:25:51.264Z,37.49
2018-06-04T13:28:17.550Z,37.58
2018-06-04T13:30:43.841Z,37.58
2018-06-04T13:33:10.134Z,37.88
2018-06-04T13:35:36.431Z,37.74
2018-06-04T13:38:02.747Z,38.79
2018-06-04T13:40:29.089Z,38.40
2018-06-04T13:42:55.389Z,38.25
2018-06-04T13:45:21.681Z,38.53
2018-06-04T13:47:48.012Z,38.09
2018-06-04T13:50:14.322Z,37.64
2018-06-04T13:52:40.608Z,35.50
2018-06-04T13:55:06.910Z,36.24
2018-06-04T13:57:33.206Z,36.51
2018-06-04T13:59:59.565Z,38.38
2018-06-04T14:02:25.868Z,39.96
2018-06-04T14:04:52.162Z,41.29
2018-06-04T14:07:18.498Z,41.86
2018-06-04T14:09:44.792Z,42.05
2018-06-04T14:12:11.100Z,41.62
2018-06-04T14:14:37.471Z,41.86
2018-06-04T14:17:03.808Z,41.96
2018-06-04T14:19:30.101Z,41.96
2018-06-04T14:21:56.401Z,41.98
2018-06-04T14:24:22.689Z,41.80
2018-06-04T14:26:49.021Z,41.51
2018-06-04T14:29:15.327Z,41.47
2018-06-04T14:31:41.626Z,41.16
2018-06-04T14:34:07.977Z,40.11
2018-06-04T14:36:34.268Z,40.26
2018-06-04T14:39:00.590Z,40.37
2018-06-04T14:41:26.863Z,40.52
2018-06-04T14:43:53.156Z,40.69
2018-06-04T14:46:19.455Z,40.38
2018-06-04T14:48:45.743Z,40.61
2018-06-04T14:51:12.086Z,40.70
2018-06-04T14:53:38.402Z,41.37
2018-06-04T14:56:04.692Z,41.93
2018-06-04T14:58:31.015Z,42.47
2018-06-04T15:00:57.308Z,42.29
2018-06-04T15:03:23.595Z,42.03
2018-06-04T15:05:52.350Z,41.70
2018-06-04T15:08:20.013Z,41.77
2018-06-04T15:10:45.051Z,41.41
2018-06-04T15:13:11.346Z,41.68
2018-06-04T15:15:37.634Z,41.50
2018-06-04T15:18:03.932Z,41.93
2018-06-04T15:20:30.220Z,42.40
2018-06-04T15:22:56.516Z,43.14
2018-06-04T15:25:22.811Z,43.53
2018-06-04T15:27:49.100Z,43.54
2018-06-04T15:30:15.454Z,43.24
2018-06-04T15:32:41.750Z,43.55
2018-06-04T15:35:08.045Z,43.11
2018-06-04T15:37:34.341Z,42.97
2018-06-04T15:40:00.637Z,43.04
2018-06-04T15:42:26.929Z,43.15
2018-06-04T15:44:53.222Z,43.35
2018-06-04T15:47:19.518Z,43.55
2018-06-04T15:49:45.802Z,43.78
2018-06-04T15:52:12.104Z,44.03
2018-06-04T15:54:38.396Z,44.32
2018-06-04T15:57:04.696Z,44.92
2018-06-04T15:59:31.021Z,45.12
2018-06-04T16:01:57.319Z,44.95
2018-06-04T16:04:23.614Z,45.12
2018-06-04T16:06:49.947Z,45.24
2018-06-04T16:09:16.258Z,45.63
2018-06-04T16:11:42.596Z,46.32
2018-06-04T16:14:08.894Z,46.46
2018-06-04T16:16:35.238Z,46.05
2018-06-04T16:19:01.536Z,46.84
2018-06-04T16:21:27.895Z,46.85
2018-06-04T16:23:54.239Z,46.91
2018-06-04T16:26:20.542Z,46.90
2018-06-04T16:28:46.850Z,47.38
2018-06-04T16:31:13.147Z,47.82
2018-06-04T16:33:39.441Z,48.42
2018-06-04T16:36:05.733Z,49.04
2018-06-04T16:38:32.034Z,49.24
2018-06-04T16:40:58.337Z,49.53
2018-06-04T16:43:24.632Z,49.72
2018-06-04T16:45:50.923Z,49.76
2018-06-04T16:48:17.212Z,50.03
2018-06-04T16:50:43.539Z,49.76
2018-06-04T16:53:09.846Z,49.70
2018-06-04T16:55:36.185Z,49.70
2018-06-04T16:58:02.482Z,49.83
2018-06-04T17:00:28.791Z,49.97
2018-06-04T17:02:55.108Z,50.11
2018-06-04T17:05:21.408Z,50.61
2018-06-04T17:07:47.739Z,50.56
2018-06-04T17:10:14.043Z,50.39
2018-06-04T17:12:40.336Z,50.09
2018-06-04T17:15:06.637Z,50.08
2018-06-04T17:17:32.934Z,50.69
2018-06-04T17:19:59.243Z,51.12
2018-06-04T17:22:25.534Z,51.77
2018-06-04T17:24:51.829Z,52.69
2018-06-04T17:27:18.127Z,53.10
2018-06-04T17:29:44.443Z,53.51
2018-06-04T17:32:10.725Z,54.20
2018-06-04T17:34:37.056Z,54.03
2018-06-04T17:37:03.308Z,54.98
2018-06-04T17:39:29.601Z,56.38
2018-06-04T17:41:55.896Z,58.53
2018-06-04T17:44:22.196Z,60.71
2018-06-04T17:46:48.496Z,60.29
2018-06-04T17:49:14.797Z,60.63
2018-06-04T17:51:41.257Z,60.82
2018-06-04T17:54:07.546Z,60.87
2018-06-04T17:56:33.840Z,60.94
2018-06-04T17:59:00.134Z,61.49
2018-06-04T18:01:26.432Z,61.38
2018-06-04T18:03:52.728Z,60.81
2018-06-04T18:06:19.031Z,61.25
2018-06-04T18:08:45.326Z,60.95
2018-06-04T18:11:23.723Z,60.67
2018-06-04T18:13:45.699Z,60.90
2018-06-04T18:16:12.031Z,61.35
2018-06-04T18:18:38.334Z,60.19
2018-06-04T18:21:04.628Z,60.15
2018-06-04T18:23:30.934Z,59.49
2018-06-04T18:25:57.220Z,59.17
2018-06-04T18:28:23.690Z,59.07
2018-06-04T18:30:52.862Z,59.05
2018-06-04T18:33:19.147Z,58.51
2018-06-04T18:35:45.444Z,58.22
2018-06-04T18:38:11.762Z,57.75
2018-06-04T18:40:38.047Z,57.41
2018-06-04T18:43:04.337Z,56.99
2018-06-04T18:45:30.626Z,56.69
2018-06-04T18:47:56.924Z,56.59
2018-06-04T18:50:23.215Z,56.40
2018-06-04T18:52:49.507Z,56.16
2018-06-04T18:55:15.808Z,55.88
2018-06-04T18:57:42.103Z,55.54
2018-06-04T19:00:08.403Z,55.95
2018-06-04T19:02:34.702Z,56.78
2018-06-04T19:05:01.013Z,57.31
2018-06-04T19:07:27.300Z,58.22
2018-06-04T19:09:53.616Z,58.52
2018-06-04T19:12:19.908Z,59.23
2018-06-04T19:14:46.194Z,60.66
2018-06-04T19:17:15.607Z,63.16
2018-06-04T19:19:41.909Z,66.98
2018-06-04T19:22:08.204Z,68.45
2018-06-04T19:24:34.522Z,68.19
2018-06-04T19:27:00.818Z,68.76
2018-06-04T19:29:27.123Z,71.65
2018-06-04T19:31:53.451Z,72.39
2018-06-04T19:34:19.726Z,76.91
2018-06-04T19:36:46.060Z,80.69
2018-06-04T19:39:12.404Z,84.73
2018-06-04T19:41:38.656Z,87.04
2018-06-04T19:44:04.951Z,87.62
2018-06-04T19:46:31.245Z,89.35
2018-06-04T19:48:57.544Z,89.84
2018-06-04T19:51:23.849Z,90.82
2018-06-04T19:53:50.182Z,91.09
2018-06-04T19:56:16.480Z,91.80
2018-06-04T19:58:42.842Z,91.89
2018-06-04T20:01:09.138Z,92.04
2018-06-04T20:03:35.492Z,89.77
2018-06-04T20:06:01.789Z,90.93
2018-06-04T20:08:28.133Z,91.53
2018-06-04T20:10:54.419Z,91.78
2018-06-04T20:13:20.717Z,91.82
2018-06-04T20:15:47.034Z,92.09
2018-06-04T20:18:13.466Z,91.99
2018-06-04T20:20:39.758Z,92.08
2018-06-04T20:23:06.048Z,91.75
2018-06-04T20:25:32.347Z,91.42
2018-06-04T20:27:58.635Z,91.14
2018-06-04T20:30:24.967Z,90.20
2018-06-04T20:32:51.265Z,87.86
2018-06-04T20:35:17.549Z,87.69
2018-06-04T20:37:43.838Z,85.79
2018-06-04T20:40:10.187Z,85.35
2018-06-04T20:42:36.482Z,83.74
2018-06-04T20:45:02.781Z,84.14
2018-06-04T20:47:29.100Z,84.65
2018-06-04T20:49:55.391Z,83.08
2018-06-04T20:52:21.685Z,83.53
2018-06-04T20:54:47.975Z,81.09
2018-06-04T20:57:14.262Z,81.08
2018-06-04T20:59:40.595Z,80.84
2018-06-04T21:02:06.890Z,81.79
2018-06-04T21:04:33.175Z,81.13
2018-06-04T21:06:59.466Z,80.44
2018-06-04T21:09:25.772Z,80.03
2018-06-04T21:11:52.061Z,79.32
2018-06-04T21:14:18.347Z,77.60
2018-06-04T21:16:44.685Z,77.22
2018-06-04T21:19:10.988Z,76.84
2018-06-04T21:21:37.316Z,78.54
2018-06-04T21:24:03.628Z,79.31
2018-06-04T21:26:29.923Z,79.33
2018-06-04T21:28:56.220Z,77.59
2018-06-04T21:31:22.508Z,76.66
2018-06-04T21:33:48.800Z,78.08
2018-06-04T21:36:15.086Z,78.25
2018-06-04T21:38:41.493Z,76.51
2018-06-04T21:41:07.788Z,76.50
2018-06-04T21:43:34.084Z,77.17
2018-06-04T21:46:00.384Z,78.00
2018-06-04T21:48:26.675Z,77.49
2018-06-04T21:50:53.048Z,77.25
2018-06-04T21:53:19.343Z,75.93
2018-06-04T21:55:45.680Z,76.92
2018-06-04T21:58:11.969Z,77.18
2018-06-04T22:00:38.259Z,77.73
2018-06-04T22:03:04.548Z,78.69
2018-06-04T22:05:30.848Z,79.53
2018-06-04T22:07:57.146Z,79.83
2018-06-04T22:10:23.439Z,81.56
2018-06-04T22:12:49.725Z,81.53
2018-06-04T22:15:16.053Z,80.79
2018-06-04T22:17:42.316Z,80.75
2018-06-04T22:20:08.613Z,80.93
2018-06-04T22:22:37.923Z,81.48
2018-06-04T22:25:04.224Z,81.79
2018-06-04T22:27:30.525Z,82.10
2018-06-04T22:29:56.820Z,82.27
2018-06-04T22:32:23.106Z,82.65
2018-06-04T22:34:49.410Z,82.99
2018-06-04T22:37:15.699Z,83.38
2018-06-04T22:39:41.980Z,83.53
2018-06-04T22:42:08.283Z,83.50
2018-06-04T22:44:34.581Z,82.96
2018-06-04T22:47:00.880Z,82.58
2018-06-04T22:49:27.176Z,82.04
2018-06-04T22:51:53.477Z,83.28
2018-06-04T22:54:19.769Z,83.69
2018-06-04T22:56:46.067Z,84.02
2018-06-04T22:59:12.365Z,83.17
2018-06-04T23:01:38.657Z,83.50
2018-06-04T23:04:04.943Z,83.77
2018-06-04T23:06:31.279Z,84.31
2018-06-04T23:08:57.570Z,84.76
2018-06-04T23:11:23.904Z,84.91
2018-06-04T23:13:50.191Z,84.96
2018-06-04T23:16:16.523Z,84.50
2018-06-04T23:18:42.821Z,84.48
2018-06-04T23:21:09.149Z,84.77
2018-06-04T23:23:35.455Z,85.01
2018-06-04T23:26:01.789Z,85.64
2018-06-04T23:28:28.084Z,85.63
2018-06-04T23:30:54.380Z,85.26
2018-06-04T23:33:20.682Z,85.11
2018-06-04T23:35:47.008Z,84.89
2018-06-04T23:38:13.338Z,85.05
2018-06-04T23:40:39.626Z,85.69
2018-06-04T23:43:05.921Z,86.03
2018-06-04T23:45:32.221Z,85.70
2018-06-04T23:47:58.516Z,85.32
2018-06-04T23:50:24.805Z,84.73
2018-06-04T23:52:51.102Z,85.17
2018-06-04T23:55:17.400Z,85.01
2018-06-04T23:57:43.722Z,85.52
